Wind Gusting 00 knots
05
July 24, 2017 12:47 PM EDT
Weather Information
Wind Direction
  340 °
Wind Speed
  05 kt (6 mph)
Wind Gust
  00 kt (0 mph)
Altimeter
29.97 in
Visibility
10 SM
Temperature
28° C
82° F
Dewpoint
18° C
64° F
Humidity
55%
Sky Condition
Clear
VFR

METAR KIMS 241647Z AUTO 34005KT 10SM CLR 28/18 A2997 RMK AO1

*Background is not an actual portrayal of the airport.